Time;durP1;ratioP1;P1;durP2;ratioP2;P2;SDS_P1;SDS_P2;PMS_P1;PMS_P2;Temp;Humidity;BMP_temperature;BMP_pressure;BME280_temperature;BME280_humidity;BME280_pressure;Samples;Min_cycle;Max_cycle;Signal;HPM_P1;HPM_P2
2023/09/09 00:01:12;;;;;;;9.40;7.50;;;;;;;16.33;87.30;97176.06;109213;1272;22505;-80
2023/09/09 00:03:44;;;;;;;9.60;7.00;;;;;;;16.28;87.60;97175.50;108922;1267;22508;-80
2023/09/09 00:06:16;;;;;;;9.30;7.20;;;;;;;16.31;87.98;97175.12;108958;1264;23828;-80
2023/09/09 00:08:50;;;;;;;9.90;8.30;;;;;;;16.29;87.98;97169.23;108961;1272;22984;-80
2023/09/09 00:11:21;;;;;;;11.20;7.50;;;;;;;16.29;87.95;97170.35;108937;1267;22522;-80
2023/09/09 00:13:53;;;;;;;10.90;7.80;;;;;;;16.22;87.96;97173.46;108892;1272;22554;-80
2023/09/09 00:16:24;;;;;;;9.40;7.40;;;;;;;16.15;88.25;97173.88;108918;1272;25287;-80
2023/09/09 00:18:56;;;;;;;8.70;6.90;;;;;;;16.11;88.16;97168.45;108921;1272;25281;-80
2023/09/09 00:21:29;;;;;;;8.80;7.00;;;;;;;16.08;88.61;97170.51;108926;1272;22509;-80
2023/09/09 00:24:05;;;;;;;9.00;7.00;;;;;;;16.07;88.80;97171.23;108905;1264;23201;-80
2023/09/09 00:26:37;;;;;;;9.10;7.10;;;;;;;16.03;88.94;97165.28;108946;1272;23916;-80
2023/09/09 00:29:09;;;;;;;10.20;7.00;;;;;;;15.97;88.85;97165.27;108914;1272;24878;-80
2023/09/09 00:31:40;;;;;;;9.70;7.30;;;;;;;15.94;89.20;97167.09;108897;1272;23242;-80
2023/09/09 00:34:12;;;;;;;11.10;9.20;;;;;;;15.99;89.72;97166.98;108908;1269;24506;-80
2023/09/09 00:36:48;;;;;;;9.90;8.40;;;;;;;16.04;89.81;97161.84;108967;1266;22524;-80
2023/09/09 00:39:21;;;;;;;12.80;7.90;;;;;;;16.05;89.87;97160.81;108943;1272;24359;-80
2023/09/09 00:41:53;;;;;;;8.70;7.40;;;;;;;16.07;89.92;97163.35;108938;1272;22621;-80
2023/09/09 00:44:25;;;;;;;11.70;8.10;;;;;;;16.11;90.16;97161.56;108940;1272;23021;-80
2023/09/09 00:47:00;;;;;;;10.40;8.70;;;;;;;16.17;90.05;97163.08;108908;1272;24220;-80
2023/09/09 00:49:33;;;;;;;11.90;8.00;;;;;;;16.19;89.70;97163.63;108937;1269;22505;-80
2023/09/09 00:52:09;;;;;;;8.20;7.30;;;;;;;16.22;89.50;97161.64;108945;1272;25209;-80
2023/09/09 00:54:40;;;;;;;8.70;7.20;;;;;;;16.21;89.25;97156.73;108924;1272;35281;-80
2023/09/09 00:57:14;;;;;;;7.70;6.60;;;;;;;16.21;89.03;97158.17;108952;1270;22529;-80
2023/09/09 00:59:48;;;;;;;8.50;7.10;;;;;;;16.19;88.88;97156.83;108995;1272;22511;-80
2023/09/09 01:02:22;;;;;;;8.80;6.80;;;;;;;16.19;88.90;97156.05;108946;1264;22505;-80
2023/09/09 01:04:53;;;;;;;10.00;7.00;;;;;;;16.19;88.71;97159.95;108987;1267;22521;-80
2023/09/09 01:07:25;;;;;;;10.20;6.80;;;;;;;16.18;88.44;97161.98;108979;1267;22530;-80
2023/09/09 01:09:57;;;;;;;8.60;7.10;;;;;;;16.17;88.33;97166.48;108982;1266;24206;-80
2023/09/09 01:12:28;;;;;;;12.80;8.40;;;;;;;16.17;88.29;97165.22;108956;1270;25230;-80
2023/09/09 01:14:59;;;;;;;11.90;8.90;;;;;;;16.18;88.91;97167.98;108947;1272;28054;-80
2023/09/09 01:17:35;;;;;;;12.50;8.70;;;;;;;16.24;89.31;97164.97;108951;1267;25403;-80
2023/09/09 01:20:13;;;;;;;12.00;9.20;;;;;;;16.27;89.51;97164.20;108904;1272;24359;-80
2023/09/09 01:22:48;;;;;;;13.50;10.00;;;;;;;16.26;89.63;97161.39;109202;1266;22550;-80
2023/09/09 01:25:22;;;;;;;11.90;10.00;;;;;;;16.26;89.99;97158.81;109282;1267;23168;-80
2023/09/09 01:27:54;;;;;;;14.50;9.80;;;;;;;16.28;90.14;97155.02;109316;1272;22534;-80
2023/09/09 01:30:26;;;;;;;12.30;9.80;;;;;;;16.28;90.22;97155.40;109256;1272;22656;-80
2023/09/09 01:32:58;;;;;;;10.10;9.00;;;;;;;16.27;90.04;97159.48;109195;1267;22522;-80
2023/09/09 01:35:29;;;;;;;12.80;9.50;;;;;;;16.26;90.05;97159.40;109289;1270;25444;-80
2023/09/09 01:38:03;;;;;;;12.00;9.60;;;;;;;16.24;90.00;97158.75;109265;1266;22515;-80
2023/09/09 01:40:38;;;;;;;11.10;9.10;;;;;;;16.26;90.22;97158.05;109223;1270;22522;-80
2023/09/09 01:43:10;;;;;;;13.50;9.70;;;;;;;16.29;90.24;97157.73;109254;1272;22523;-80
2023/09/09 01:45:41;;;;;;;12.80;9.80;;;;;;;16.31;90.16;97158.75;109247;1270;22511;-80
2023/09/09 01:48:12;;;;;;;10.60;9.50;;;;;;;16.31;90.07;97159.75;109250;1272;22518;-81
2023/09/09 01:50:46;;;;;;;10.90;9.40;;;;;;;16.31;90.12;97158.78;109238;1267;22510;-80
2023/09/09 01:53:17;;;;;;;11.80;9.40;;;;;;;16.29;90.36;97159.02;109203;1264;22599;-80
2023/09/09 01:55:48;;;;;;;10.70;9.40;;;;;;;16.30;90.57;97160.38;109220;1267;22511;-80
2023/09/09 01:58:19;;;;;;;12.70;9.50;;;;;;;16.30;90.61;97161.67;109227;1271;25284;-81
2023/09/09 02:00:50;;;;;;;11.70;9.30;;;;;;;16.29;90.69;97162.08;109244;1272;22508;-81
2023/09/09 02:03:21;;;;;;;11.40;9.80;;;;;;;16.27;90.64;97163.72;109208;1272;22511;-81
2023/09/09 02:05:52;;;;;;;12.00;10.10;;;;;;;16.26;90.85;97163.84;109267;1272;22511;-81
2023/09/09 02:08:23;;;;;;;11.70;9.20;;;;;;;16.26;90.91;97167.87;109179;1272;22530;-81
2023/09/09 02:10:54;;;;;;;11.00;9.30;;;;;;;16.23;90.83;97168.95;109239;1271;26365;-81
2023/09/09 02:13:25;;;;;;;12.00;9.50;;;;;;;16.18;90.82;97166.48;109279;1272;25434;-81
2023/09/09 02:16:08;;;;;;;10.90;9.30;;;;;;;16.11;90.75;97161.65;109273;1272;22531;-81
2023/09/09 02:18:39;;;;;;;13.10;9.90;;;;;;;16.06;90.94;97164.07;109255;1272;23878;-81
2023/09/09 02:21:11;;;;;;;12.80;9.60;;;;;;;16.02;91.07;97160.05;109286;1266;24215;-81
2023/09/09 02:23:43;;;;;;;11.90;10.30;;;;;;;16.02;91.32;97157.88;109281;1271;22526;-81
2023/09/09 02:26:16;;;;;;;11.80;10.20;;;;;;;16.03;91.64;97157.52;109284;1272;22646;-81
2023/09/09 02:28:49;;;;;;;10.80;9.40;;;;;;;16.06;91.68;97160.92;109221;1272;24209;-81
2023/09/09 02:31:20;;;;;;;10.90;9.50;;;;;;;16.09;91.86;97160.32;109243;1272;25335;-81
2023/09/09 02:33:51;;;;;;;10.60;9.50;;;;;;;16.13;91.87;97167.49;109283;1272;22516;-81
2023/09/09 02:36:22;;;;;;;12.80;10.50;;;;;;;16.18;91.97;97164.02;109211;1272;22505;-81
2023/09/09 02:38:53;;;;;;;11.80;10.10;;;;;;;16.23;91.86;97162.46;109253;1272;23221;-81
2023/09/09 02:41:24;;;;;;;11.60;9.80;;;;;;;16.25;91.75;97159.80;109233;1264;22559;-81
2023/09/09 02:43:55;;;;;;;12.40;9.70;;;;;;;16.27;91.66;97153.88;109257;1269;22660;-81
2023/09/09 02:46:26;;;;;;;12.20;9.30;;;;;;;16.28;91.59;97155.77;109242;1271;24038;-81
2023/09/09 02:48:57;;;;;;;11.00;9.60;;;;;;;16.29;91.36;97152.22;109275;1271;22537;-81
2023/09/09 02:51:28;;;;;;;11.10;9.70;;;;;;;16.29;91.44;97151.36;109291;1267;23724;-81
2023/09/09 02:53:59;;;;;;;13.30;9.60;;;;;;;16.30;91.40;97153.27;109212;1269;22545;-81
2023/09/09 02:56:33;;;;;;;11.80;9.10;;;;;;;16.32;91.39;97152.85;109196;1271;23271;-81
2023/09/09 02:59:06;;;;;;;13.90;10.20;;;;;;;16.32;91.45;97155.03;109223;1272;22517;-80
2023/09/09 03:01:38;;;;;;;11.80;9.40;;;;;;;16.33;91.48;97154.66;109246;1262;22533;-81
2023/09/09 03:04:09;;;;;;;12.80;10.00;;;;;;;16.36;91.51;97155.20;109202;1272;23865;-80
2023/09/09 03:06:41;;;;;;;11.70;9.90;;;;;;;16.36;91.41;97152.36;109224;1266;24244;-80
2023/09/09 03:09:15;;;;;;;12.30;9.70;;;;;;;16.36;91.33;97154.91;109222;1272;22530;-80
2023/09/09 03:11:46;;;;;;;11.50;10.00;;;;;;;16.36;91.36;97150.79;109263;1272;24237;-81
2023/09/09 03:14:17;;;;;;;11.50;9.40;;;;;;;16.38;91.28;97152.68;109249;1271;22508;-80
2023/09/09 03:16:49;;;;;;;11.30;9.90;;;;;;;16.38;91.15;97151.98;109249;1271;22534;-80
2023/09/09 03:19:21;;;;;;;11.20;10.00;;;;;;;16.40;91.25;97151.41;109234;1271;22591;-80
2023/09/09 03:21:52;;;;;;;12.30;10.00;;;;;;;16.39;91.00;97151.46;109266;1268;25428;-80
2023/09/09 03:24:23;;;;;;;11.80;9.60;;;;;;;16.37;91.02;97150.13;109191;1272;22743;-80
2023/09/09 03:26:54;;;;;;;11.60;9.60;;;;;;;16.36;91.00;97145.49;109261;1271;22575;-80
2023/09/09 03:29:25;;;;;;;11.80;10.00;;;;;;;16.35;90.96;97149.48;109259;1269;22556;-80
2023/09/09 03:31:56;;;;;;;10.50;9.40;;;;;;;16.34;90.94;97149.61;109256;1266;22543;-80
2023/09/09 03:34:29;;;;;;;12.70;9.60;;;;;;;16.35;90.96;97151.15;109130;1272;165525;-80
2023/09/09 03:37:02;;;;;;;11.80;9.60;;;;;;;16.35;90.97;97152.64;109260;1266;22669;-80
2023/09/09 03:39:36;;;;;;;12.60;9.50;;;;;;;16.34;90.96;97155.86;109178;1272;25275;-80
2023/09/09 03:42:07;;;;;;;12.20;9.80;;;;;;;16.35;90.97;97153.08;109204;1266;24221;-80
2023/09/09 03:44:39;;;;;;;10.60;9.30;;;;;;;16.35;90.89;97152.41;109227;1271;22543;-80
2023/09/09 03:47:10;;;;;;;12.20;9.60;;;;;;;16.37;91.07;97154.10;109238;1267;22556;-80
2023/09/09 03:49:41;;;;;;;13.20;9.40;;;;;;;16.38;90.98;97154.08;109260;1272;22782;-80
2023/09/09 03:52:11;;;;;;;11.90;8.90;;;;;;;16.36;90.79;97153.46;109246;1265;25424;-80
2023/09/09 03:54:42;;;;;;;11.50;9.40;;;;;;;16.32;90.39;97157.38;109196;1271;22505;-80
2023/09/09 03:57:14;;;;;;;15.60;8.70;;;;;;;16.28;90.32;97156.44;109207;1271;22631;-80
2023/09/09 03:59:45;;;;;;;13.40;9.30;;;;;;;16.24;90.38;97156.40;109219;1266;22508;-80
2023/09/09 04:02:15;;;;;;;10.60;9.00;;;;;;;16.24;90.43;97156.30;108934;1269;22554;-80
2023/09/09 04:04:48;;;;;;;12.40;9.80;;;;;;;16.24;90.39;97156.93;108962;1271;22520;-80
2023/09/09 04:07:19;;;;;;;11.20;9.30;;;;;;;16.24;90.26;97160.90;108920;1266;22504;-80
2023/09/09 04:09:50;;;;;;;11.70;8.90;;;;;;;16.20;90.25;97163.23;108909;1266;22516;-80
2023/09/09 04:12:21;;;;;;;11.80;9.40;;;;;;;16.19;90.50;97165.77;108905;1271;22522;-80
2023/09/09 04:14:52;;;;;;;9.90;8.60;;;;;;;16.18;90.35;97172.27;108929;1263;24003;-80
2023/09/09 04:17:23;;;;;;;13.40;9.10;;;;;;;16.17;90.52;97170.23;108912;1271;22579;-80
2023/09/09 04:19:54;;;;;;;10.80;8.90;;;;;;;16.15;90.12;97171.09;108922;1271;22573;-80
2023/09/09 04:22:25;;;;;;;11.80;9.00;;;;;;;16.13;90.14;97173.22;108857;1272;23787;-80
2023/09/09 04:24:56;;;;;;;10.80;9.50;;;;;;;16.13;90.19;97172.84;108926;1266;23832;-80
2023/09/09 04:27:28;;;;;;;11.10;9.60;;;;;;;16.13;90.02;97174.38;108936;1271;22539;-80
2023/09/09 04:30:00;;;;;;;11.80;9.40;;;;;;;16.19;90.38;97171.80;108956;1272;25229;-80
2023/09/09 04:32:31;;;;;;;10.00;8.80;;;;;;;16.31;90.29;97165.65;108922;1271;22994;-80
2023/09/09 04:35:03;;;;;;;10.70;9.60;;;;;;;16.33;90.19;97166.14;108982;1272;23858;-80
2023/09/09 04:37:34;;;;;;;10.00;8.90;;;;;;;16.49;90.57;97169.50;108952;1272;23729;-80
2023/09/09 04:40:06;;;;;;;10.80;8.60;;;;;;;16.74;90.83;97170.91;108924;1263;22512;-80
2023/09/09 04:42:39;;;;;;;11.90;8.80;;;;;;;17.01;90.77;97166.92;108933;1271;22678;-80
2023/09/09 04:45:14;;;;;;;12.20;8.50;;;;;;;17.27;90.49;97169.77;108943;1251;23138;-80
2023/09/09 04:47:45;;;;;;;10.00;7.70;;;;;;;17.55;90.48;97171.77;108903;1271;23833;-80
2023/09/09 04:50:17;;;;;;;8.80;7.90;;;;;;;17.84;90.00;97169.33;108921;1271;22531;-80
2023/09/09 04:52:48;;;;;;;9.50;7.90;;;;;;;18.05;89.41;97168.94;108901;1272;23125;-80
2023/09/09 04:55:19;;;;;;;12.70;8.40;;;;;;;18.33;89.47;97167.85;108897;1272;22599;-80
2023/09/09 04:57:50;;;;;;;10.80;8.00;;;;;;;18.69;89.22;97168.64;108919;1272;25425;-79
2023/09/09 05:00:22;;;;;;;9.30;7.70;;;;;;;19.03;88.55;97168.84;108986;1266;22512;-79
2023/09/09 05:02:53;;;;;;;10.00;7.50;;;;;;;19.36;87.99;97171.39;108888;1267;25560;-79
2023/09/09 05:05:24;;;;;;;10.50;7.80;;;;;;;19.67;87.12;97172.20;108863;1271;22508;-79
2023/09/09 05:07:58;;;;;;;11.50;8.10;;;;;;;19.96;86.40;97170.91;108889;1272;25411;-79
2023/09/09 05:10:29;;;;;;;9.90;7.90;;;;;;;20.21;85.92;97174.42;108891;1272;23930;-79
2023/09/09 05:13:05;;;;;;;11.60;7.60;;;;;;;20.48;85.20;97174.71;108887;1271;26588;-79
2023/09/09 05:15:39;;;;;;;12.10;8.00;;;;;;;20.65;84.14;97178.96;108893;1271;22516;-79
2023/09/09 05:18:12;;;;;;;9.80;8.10;;;;;;;20.88;83.59;97176.67;108900;1272;25426;-79
2023/09/09 05:20:46;;;;;;;9.00;6.90;;;;;;;21.15;83.09;97176.86;108909;1272;25081;-79
2023/09/09 05:23:18;;;;;;;8.70;7.50;;;;;;;21.36;81.71;97178.77;108874;1266;22507;-79
2023/09/09 05:25:52;;;;;;;9.40;7.00;;;;;;;21.52;81.05;97180.25;108910;1266;25941;-79
2023/09/09 05:28:24;;;;;;;8.80;7.20;;;;;;;21.72;80.24;97179.02;108933;1254;22520;-79
2023/09/09 05:30:56;;;;;;;9.60;7.00;;;;;;;21.81;79.78;97173.79;108917;1272;22510;-79
2023/09/09 05:33:29;;;;;;;10.30;7.30;;;;;;;22.06;79.15;97170.80;108922;1265;22547;-79
2023/09/09 05:36:03;;;;;;;8.90;6.70;;;;;;;22.22;77.93;97171.68;108905;1266;25408;-80
2023/09/09 05:38:38;;;;;;;8.70;7.30;;;;;;;22.17;76.29;97170.53;108949;1266;22520;-79
2023/09/09 05:41:09;;;;;;;8.00;7.20;;;;;;;22.16;76.87;97168.80;108954;1269;22517;-80
2023/09/09 05:43:42;;;;;;;8.60;7.00;;;;;;;22.33;76.44;97169.85;108864;1271;25480;-78
2023/09/09 05:46:17;;;;;;;9.30;7.10;;;;;;;22.22;74.78;97173.38;108975;1271;25518;-78
2023/09/09 05:48:48;;;;;;;8.90;7.30;;;;;;;22.08;75.27;97173.05;108881;1269;22500;-79
2023/09/09 05:51:20;;;;;;;8.80;7.00;;;;;;;22.11;74.52;97175.84;108960;1267;24202;-78
2023/09/09 05:53:53;;;;;;;9.10;7.30;;;;;;;21.88;74.09;97176.25;108909;1265;22578;-78
2023/09/09 05:56:24;;;;;;;8.80;7.30;;;;;;;21.83;74.52;97178.42;108944;1271;24075;-80
2023/09/09 05:58:56;;;;;;;10.10;7.50;;;;;;;21.98;75.06;97183.11;108915;1271;25414;-80
2023/09/09 06:01:28;;;;;;;9.30;7.40;;;;;;;22.25;74.47;97184.67;108986;1271;24212;-79
2023/09/09 06:03:59;;;;;;;8.30;7.00;;;;;;;22.36;73.79;97185.17;108897;1271;22539;-80
2023/09/09 06:06:32;;;;;;;8.40;6.90;;;;;;;22.39;73.49;97190.59;109300;1271;22985;-80
2023/09/09 06:09:04;;;;;;;8.10;6.50;;;;;;;22.37;72.93;97189.20;109287;1271;25340;-79
2023/09/09 06:11:38;;;;;;;8.20;6.30;;;;;;;22.13;72.15;97190.38;109246;1269;22511;-78
2023/09/09 06:14:09;;;;;;;7.90;7.00;;;;;;;21.93;72.59;97192.05;108877;1266;23222;-78
2023/09/09 06:16:40;;;;;;;8.00;6.50;;;;;;;21.94;72.89;97196.88;108920;1266;24620;-78
2023/09/09 06:19:11;;;;;;;6.90;6.10;;;;;;;22.02;72.80;97198.35;108777;1266;22552;-79
2023/09/09 06:21:42;;;;;;;7.70;6.60;;;;;;;22.02;72.72;97201.45;108871;1266;22503;-78
2023/09/09 06:24:14;;;;;;;7.50;6.20;;;;;;;22.08;72.03;97198.80;108857;1269;23488;-77
2023/09/09 06:26:45;;;;;;;8.60;7.00;;;;;;;21.91;71.56;97196.79;108925;1267;22529;-79
2023/09/09 06:29:16;;;;;;;8.60;6.80;;;;;;;21.81;72.08;97199.70;108879;1271;22513;-78
2023/09/09 06:31:47;;;;;;;8.90;7.10;;;;;;;22.03;72.22;97203.70;108923;1271;24947;-78
2023/09/09 06:34:19;;;;;;;8.20;7.30;;;;;;;22.17;71.89;97203.64;108931;1272;22673;-78
2023/09/09 06:36:50;;;;;;;9.20;6.90;;;;;;;22.30;71.87;97204.73;108854;1271;23490;-78
2023/09/09 06:39:23;;;;;;;8.60;6.80;;;;;;;22.41;71.86;97204.69;108918;1272;22611;-78
2023/09/09 06:41:54;;;;;;;8.90;7.60;;;;;;;22.52;71.68;97208.17;108844;1271;22549;-79
2023/09/09 06:44:25;;;;;;;9.00;6.90;;;;;;;22.62;72.03;97214.34;108878;1272;22621;-78
2023/09/09 06:46:56;;;;;;;8.40;6.90;;;;;;;22.82;71.84;97213.39;108859;1266;22713;-78
2023/09/09 06:49:27;;;;;;;8.60;6.70;;;;;;;23.00;71.41;97216.54;108876;1272;22545;-78
2023/09/09 06:51:58;;;;;;;9.60;7.00;;;;;;;22.99;70.55;97219.84;108870;1271;22504;-79
2023/09/09 06:54:30;;;;;;;9.20;7.20;;;;;;;22.90;70.69;97227.60;108884;1266;23789;-78
2023/09/09 06:57:05;;;;;;;9.10;7.20;;;;;;;23.04;71.33;97233.04;108903;1269;22513;-78
2023/09/09 06:59:36;;;;;;;9.00;6.80;;;;;;;23.25;71.58;97239.04;108782;1264;22519;-80
2023/09/09 07:02:07;;;;;;;9.40;7.10;;;;;;;23.44;71.50;97240.99;108786;1264;22554;-81
2023/09/09 07:04:40;;;;;;;8.70;7.30;;;;;;;23.57;71.04;97238.73;108767;1271;25297;-81
2023/09/09 07:07:12;;;;;;;7.90;6.40;;;;;;;23.75;70.98;97244.30;108814;1271;23518;-81
2023/09/09 07:09:43;;;;;;;9.60;6.70;;;;;;;23.91;70.75;97245.19;108890;1271;22513;-81
2023/09/09 07:12:14;;;;;;;8.00;5.90;;;;;;;24.02;70.29;97246.94;108926;1269;25256;-80
2023/09/09 07:14:45;;;;;;;8.00;6.50;;;;;;;24.13;70.40;97246.04;108888;1265;22511;-81
2023/09/09 07:17:19;;;;;;;8.10;6.90;;;;;;;24.33;70.13;97245.67;108879;1269;25434;-80
2023/09/09 07:19:50;;;;;;;7.80;7.00;;;;;;;24.52;70.53;97243.17;108862;1269;24209;-80
2023/09/09 07:22:21;;;;;;;7.80;6.50;;;;;;;24.78;70.59;97245.27;108892;1269;23245;-80
2023/09/09 07:24:53;;;;;;;7.90;6.80;;;;;;;24.90;69.39;97246.69;108900;1272;22523;-80
2023/09/09 07:27:24;;;;;;;10.00;7.30;;;;;;;24.76;68.59;97246.95;108905;1266;24377;-80
2023/09/09 07:29:56;;;;;;;9.30;7.70;;;;;;;24.60;68.26;97247.92;108867;1266;24311;-79
2023/09/09 07:32:27;;;;;;;7.00;6.00;;;;;;;24.54;68.46;97247.17;108840;1266;22531;-80
2023/09/09 07:35:04;;;;;;;9.40;6.60;;;;;;;24.62;68.70;97249.65;108871;1266;22545;-79
2023/09/09 07:37:36;;;;;;;12.10;6.90;;;;;;;24.65;68.63;97251.20;108869;1272;22725;-80
2023/09/09 07:40:11;;;;;;;9.60;7.00;;;;;;;24.62;68.20;97247.95;108930;1266;22534;-79
2023/09/09 07:42:42;;;;;;;8.20;7.00;;;;;;;24.52;68.28;97249.00;108897;1269;22504;-79
2023/09/09 07:45:14;;;;;;;9.70;6.60;;;;;;;24.60;68.78;97246.52;108889;1266;23405;-81
2023/09/09 07:47:45;;;;;;;8.00;6.80;;;;;;;24.66;68.62;97249.61;108920;1272;22519;-80
2023/09/09 07:50:16;;;;;;;8.80;6.40;;;;;;;24.74;69.10;97248.61;108924;1271;24295;-79
2023/09/09 07:52:51;;;;;;;8.80;6.70;;;;;;;24.90;69.05;97248.73;108932;1269;22597;-80
2023/09/09 07:55:23;;;;;;;9.00;7.20;;;;;;;24.97;68.25;97247.30;108902;1272;22534;-79
2023/09/09 07:57:57;;;;;;;8.80;7.90;;;;;;;24.93;68.00;97248.16;108913;1272;22516;-80
2023/09/09 08:00:33;;;;;;;8.50;7.30;;;;;;;24.89;67.41;97245.84;108921;1266;22527;-79
2023/09/09 08:03:10;;;;;;;10.00;7.90;;;;;;;24.82;67.66;97248.63;108901;1271;22683;-79
2023/09/09 08:05:44;;;;;;;9.90;6.80;;;;;;;24.99;68.20;97249.60;108938;1271;22586;-80
2023/09/09 08:08:15;;;;;;;9.70;8.30;;;;;;;25.13;68.58;97245.96;108818;1266;22530;-79
2023/09/09 08:10:48;;;;;;;9.00;7.80;;;;;;;25.22;68.09;97244.13;108891;1269;27704;-80
2023/09/09 08:13:19;;;;;;;8.20;6.90;;;;;;;25.21;67.77;97244.88;108932;1267;22532;-79
2023/09/09 08:15:50;;;;;;;10.00;7.80;;;;;;;25.21;67.93;97246.36;108937;1266;25288;-80
2023/09/09 08:18:22;;;;;;;8.90;7.30;;;;;;;25.21;67.42;97246.59;108933;1253;22984;-79
2023/09/09 08:20:54;;;;;;;9.40;8.00;;;;;;;25.30;68.17;97249.39;108944;1271;22551;-79
2023/09/09 08:23:25;;;;;;;8.50;7.60;;;;;;;25.35;66.98;97251.13;108962;1271;22527;-79
2023/09/09 08:25:56;;;;;;;9.10;8.00;;;;;;;25.13;65.73;97250.92;108936;1271;23496;-78
2023/09/09 08:28:28;;;;;;;8.50;7.20;;;;;;;25.06;66.61;97249.70;108912;1271;25272;-78
2023/09/09 08:31:04;;;;;;;10.30;6.90;;;;;;;25.20;66.73;97248.02;108908;1271;22517;-77
2023/09/09 08:33:38;;;;;;;9.80;7.10;;;;;;;25.32;66.49;97249.34;108921;1271;23755;-77
2023/09/09 08:36:09;;;;;;;8.90;6.50;;;;;;;25.39;66.47;97247.63;108938;1271;22522;-77
2023/09/09 08:38:44;;;;;;;12.20;7.20;;;;;;;25.48;66.61;97245.09;108840;1272;22510;-77
2023/09/09 08:41:21;;;;;;;8.60;6.70;;;;;;;25.57;66.23;97242.45;108892;1272;25543;-76
2023/09/09 08:44:04;;;;;;;8.20;6.70;;;;;;;25.63;66.47;97242.09;108857;1272;22546;-77
2023/09/09 08:46:36;;;;;;;9.00;6.90;;;;;;;25.75;66.52;97241.40;108956;1271;26429;-76
2023/09/09 08:49:13;;;;;;;9.10;7.30;;;;;;;25.71;65.71;97240.02;108747;1271;24345;-76
2023/09/09 08:51:53;;;;;;;8.20;6.70;;;;;;;25.67;65.87;97238.23;108903;1271;22514;-77
2023/09/09 08:54:22;;;;;;;;;;;;;;;25.75;66.44;97238.77;108670;1272;23232;-76
2023/09/09 08:56:54;;;;;;;9.20;7.70;;;;;;;25.85;66.40;97238.78;108865;1266;23859;-77
2023/09/09 08:59:28;;;;;;;8.30;7.20;;;;;;;25.83;65.57;97242.64;108711;1265;22514;-77
2023/09/09 09:02:01;;;;;;;9.50;7.20;;;;;;;25.76;65.46;97237.95;108751;1266;22518;-77
2023/09/09 09:04:36;;;;;;;8.80;6.80;;;;;;;25.83;65.85;97234.86;108879;1250;22514;-76
2023/09/09 09:07:12;;;;;;;9.00;7.00;;;;;;;25.91;66.14;97233.84;110268;1267;22504;-77
2023/09/09 09:09:43;;;;;;;10.40;7.10;;;;;;;25.87;65.48;97232.23;108827;1265;23393;-76
2023/09/09 09:12:16;;;;;;;8.90;7.40;;;;;;;25.91;65.78;97232.77;108874;1266;24889;-76
2023/09/09 09:14:50;;;;;;;9.80;7.90;;;;;;;25.96;65.88;97231.14;108874;1266;22529;-76
2023/09/09 09:17:23;;;;;;;9.50;7.70;;;;;;;26.04;66.01;97232.17;108918;1271;22877;-76
2023/09/09 09:19:54;;;;;;;9.30;8.20;;;;;;;26.07;65.94;97232.02;108842;1271;23781;-76
2023/09/09 09:22:26;;;;;;;10.50;7.30;;;;;;;26.04;65.20;97227.30;108960;1250;22650;-77
2023/09/09 09:24:57;;;;;;;11.50;8.00;;;;;;;26.02;65.53;97225.70;108889;1271;26583;-78
2023/09/09 09:27:40;;;;;;;10.20;7.40;;;;;;;26.01;65.60;97223.98;108917;1272;24244;-77
2023/09/09 09:30:13;;;;;;;9.10;7.60;;;;;;;25.97;65.49;97223.31;108901;1266;24933;-78
2023/09/09 09:32:44;;;;;;;11.60;7.40;;;;;;;25.95;65.30;97225.07;108997;1266;25450;-77
2023/09/09 09:35:26;;;;;;;9.70;7.60;;;;;;;25.82;65.20;97223.67;108736;1271;25012;-77
2023/09/09 09:37:59;;;;;;;9.40;7.30;;;;;;;25.86;65.86;97223.10;108957;1266;25336;-79
2023/09/09 09:40:36;;;;;;;8.80;6.80;;;;;;;25.89;65.61;97220.90;108944;1271;22511;-79
2023/09/09 09:43:19;;;;;;;8.20;6.80;;;;;;;25.85;65.51;97214.88;108938;1266;22514;-77
2023/09/09 09:45:50;;;;;;;8.40;6.80;;;;;;;25.88;65.55;97217.64;109028;1263;22636;-77
2023/09/09 09:48:29;;;;;;;9.60;6.40;;;;;;;25.83;65.46;97224.16;108920;1265;25486;-77
2023/09/09 09:51:02;;;;;;;9.80;6.90;;;;;;;25.83;65.54;97218.58;108875;1253;22692;-76
2023/09/09 09:53:36;;;;;;;9.60;6.70;;;;;;;25.85;65.81;97221.40;108821;1269;24241;-77
2023/09/09 09:56:10;;;;;;;8.40;6.70;;;;;;;25.79;64.92;97220.84;108893;1272;25287;-77
2023/09/09 09:58:44;;;;;;;9.50;7.50;;;;;;;25.51;64.30;97222.11;108961;1272;23268;-77
2023/09/09 10:01:16;;;;;;;8.90;7.30;;;;;;;25.39;64.64;97222.66;108939;1272;22515;-77
2023/09/09 10:03:57;;;;;;;8.80;6.80;;;;;;;25.44;64.88;97218.86;108932;1251;22980;-77
2023/09/09 10:06:30;;;;;;;9.00;7.00;;;;;;;25.41;64.43;97220.74;108945;1271;22539;-77
2023/09/09 10:09:10;;;;;;;10.90;7.10;;;;;;;25.42;64.50;97215.51;108901;1266;24213;-77
2023/09/09 10:11:46;;;;;;;8.70;7.20;;;;;;;25.46;64.88;97215.40;108880;1271;22501;-77
2023/09/09 10:14:20;;;;;;;12.20;7.50;;;;;;;25.48;65.71;97213.13;108961;1271;22740;-77
2023/09/09 10:16:54;;;;;;;9.70;7.30;;;;;;;25.58;65.88;97209.49;108912;1266;26635;-77
2023/09/09 10:19:27;;;;;;;9.30;6.80;;;;;;;25.59;64.80;97207.02;108924;1266;22697;-77
2023/09/09 10:22:04;;;;;;;9.10;7.10;;;;;;;25.34;63.51;97206.75;108937;1271;22579;-77
2023/09/09 10:24:40;;;;;;;9.00;7.50;;;;;;;25.25;64.95;97206.48;108919;1269;22532;-77
2023/09/09 10:27:13;;;;;;;11.20;7.10;;;;;;;25.34;65.73;97210.70;108937;1266;23702;-77
2023/09/09 10:29:46;;;;;;;8.30;6.40;;;;;;;25.38;65.04;97209.55;108922;1271;22979;-77
2023/09/09 10:32:18;;;;;;;8.10;6.60;;;;;;;25.40;64.96;97207.95;108907;1266;22503;-77
2023/09/09 10:34:53;;;;;;;8.40;7.00;;;;;;;25.45;65.40;97208.96;108913;1271;22589;-77
2023/09/09 10:37:27;;;;;;;8.90;7.20;;;;;;;25.51;64.95;97208.30;108873;1266;22553;-77
2023/09/09 10:39:59;;;;;;;8.00;6.90;;;;;;;25.52;64.96;97207.06;108865;1271;22526;-77
2023/09/09 10:42:36;;;;;;;8.50;6.90;;;;;;;25.49;64.41;97203.52;108888;1265;22528;-77
2023/09/09 10:45:24;;;;;;;10.70;7.40;;;;;;;25.46;64.43;97200.13;108895;1272;22633;-77
2023/09/09 10:47:58;;;;;;;9.50;7.30;;;;;;;25.37;64.08;97201.22;108837;1272;23881;-77
2023/09/09 10:50:42;;;;;;;8.80;7.00;;;;;;;25.32;63.67;97199.48;108952;1266;25271;-77
2023/09/09 10:53:23;;;;;;;8.90;6.70;;;;;;;25.31;63.53;97194.34;108952;1265;22511;-77
2023/09/09 10:55:58;;;;;;;9.30;7.10;;;;;;;25.28;63.82;97196.77;108920;1271;22520;-77
2023/09/09 10:58:36;;;;;;;9.90;7.20;;;;;;;25.35;64.13;97191.63;108855;1271;23103;-77
2023/09/09 11:01:09;;;;;;;7.70;6.80;;;;;;;25.42;64.40;97194.09;108760;1271;22525;-77
2023/09/09 11:03:48;;;;;;;8.30;6.70;;;;;;;25.44;64.40;97190.56;108771;1266;22541;-77
2023/09/09 11:06:28;;;;;;;11.90;7.40;;;;;;;25.27;62.83;97195.06;108835;1251;22508;-77
2023/09/09 11:09:11;;;;;;;9.60;6.90;;;;;;;25.23;63.71;97197.40;108866;1268;24314;-77
2023/09/09 11:11:43;;;;;;;8.60;7.20;;;;;;;25.24;62.85;97196.88;108909;1271;24301;-76
2023/09/09 11:14:19;;;;;;;9.30;7.20;;;;;;;25.25;63.37;97192.31;108982;1269;22797;-76
2023/09/09 11:16:57;;;;;;;10.40;6.30;;;;;;;25.33;63.56;97191.90;108893;1266;24064;-76
2023/09/09 11:19:30;;;;;;;10.30;7.60;;;;;;;25.35;63.60;97192.98;108941;1271;24180;-76
2023/09/09 11:22:08;;;;;;;9.40;6.70;;;;;;;25.42;64.04;97190.84;108912;1271;22511;-76
2023/09/09 11:24:39;;;;;;;9.70;8.00;;;;;;;25.49;63.49;97185.52;108893;1272;23134;-76
2023/09/09 11:27:12;;;;;;;10.00;7.40;;;;;;;25.44;63.00;97181.16;108836;1266;22796;-76
2023/09/09 11:29:52;;;;;;;9.30;7.30;;;;;;;25.47;63.00;97177.89;108848;1266;23261;-76
2023/09/09 11:32:30;;;;;;;8.10;6.60;;;;;;;25.52;63.54;97177.29;108846;1266;23275;-76
2023/09/09 11:35:04;;;;;;;;;;;;;;;25.56;63.59;97179.51;108894;1266;25376;-76
2023/09/09 11:37:35;;;;;;;12.60;6.90;;;;;;;25.59;63.17;97174.82;108885;1271;22532;-76
2023/09/09 11:40:10;;;;;;;11.40;7.70;;;;;;;25.61;63.58;97175.71;108871;1272;25339;-76
2023/09/09 11:42:53;;;;;;;10.00;6.80;;;;;;;25.62;63.38;97173.35;108937;1266;22570;-77
2023/09/09 11:45:28;;;;;;;11.10;7.20;;;;;;;25.57;62.51;97174.10;108924;1266;22507;-77
2023/09/09 11:48:00;;;;;;;9.50;7.00;;;;;;;25.52;62.67;97172.08;108865;1271;22510;-77